sensor_id;sensor_type;location;lat;lon;timestamp;pressure;altitude;pressure_sealevel;temperature
64904;BMP280;51401;48.882;12.598;2023-04-29T00:01:51;34718.81;;;11.52
64904;BMP280;51401;48.882;12.598;2023-04-29T00:04:16;34451.31;;;11.61
64904;BMP280;51401;48.882;12.598;2023-04-29T00:06:42;34313.38;;;11.65
64904;BMP280;51401;48.882;12.598;2023-04-29T00:09:07;34324.19;;;11.67
64904;BMP280;51401;48.882;12.598;2023-04-29T00:11:32;34259.69;;;11.70
64904;BMP280;51401;48.882;12.598;2023-04-29T00:13:58;34132.34;;;11.75
64904;BMP280;51401;48.882;12.598;2023-04-29T00:16:23;34072.50;;;11.78
64904;BMP280;51401;48.882;12.598;2023-04-29T00:18:49;34105.28;;;11.77
64904;BMP280;51401;48.882;12.598;2023-04-29T00:21:14;34148.69;;;11.78
64904;BMP280;51401;48.882;12.598;2023-04-29T00:23:39;34181.91;;;11.78
64904;BMP280;51401;48.882;12.598;2023-04-29T00:26:05;34235.69;;;11.79
64904;BMP280;51401;48.882;12.598;2023-04-29T00:28:30;34173.72;;;11.82
64904;BMP280;51401;48.882;12.598;2023-04-29T00:30:55;34255.19;;;11.83
64904;BMP280;51401;48.882;12.598;2023-04-29T00:33:21;34421.09;;;11.79
64904;BMP280;51401;48.882;12.598;2023-04-29T00:35:46;34417.13;;;11.81
64904;BMP280;51401;48.882;12.598;2023-04-29T00:38:12;34430.25;;;11.82
64904;BMP280;51401;48.882;12.598;2023-04-29T00:40:37;34368.94;;;11.87
64904;BMP280;51401;48.882;12.598;2023-04-29T00:43:02;34450.44;;;11.88
64904;BMP280;51401;48.882;12.598;2023-04-29T00:45:27;34491.53;;;11.89
64904;BMP280;51401;48.882;12.598;2023-04-29T00:47:53;34462.78;;;11.93
64904;BMP280;51401;48.882;12.598;2023-04-29T00:50:18;34539.00;;;11.93
64904;BMP280;51401;48.882;12.598;2023-04-29T00:52:43;34520.22;;;11.96
64904;BMP280;51401;48.882;12.598;2023-04-29T00:55:10;34554.34;;;11.99
64904;BMP280;51401;48.882;12.598;2023-04-29T00:57:37;34809.00;;;11.94
64904;BMP280;51401;48.882;12.598;2023-04-29T01:00:04;34835.53;;;11.97
64904;BMP280;51401;48.882;12.598;2023-04-29T01:02:29;34834.53;;;12.00
64904;BMP280;51401;48.882;12.598;2023-04-29T01:04:55;34936.41;;;12.01
64904;BMP280;51401;48.882;12.598;2023-04-29T01:12:45;35320.38;;;12.07
64904;BMP280;51401;48.882;12.598;2023-04-29T01:15:29;35398.22;;;12.10
64904;BMP280;51401;48.882;12.598;2023-04-29T01:18:04;36023.41;;;11.99
64904;BMP280;51401;48.882;12.598;2023-04-29T01:20:33;36172.47;;;11.97
64904;BMP280;51401;48.882;12.598;2023-04-29T01:22:59;36342.38;;;11.96
64904;BMP280;51401;48.882;12.598;2023-04-29T01:25:24;36484.25;;;11.95
64904;BMP280;51401;48.882;12.598;2023-04-29T01:28:03;36506.03;;;11.98
64904;BMP280;51401;48.882;12.598;2023-04-29T01:33:14;36960.97;;;11.97
64904;BMP280;51401;48.882;12.598;2023-04-29T01:36:03;37237.44;;;11.96
64904;BMP280;51401;48.882;12.598;2023-04-29T01:41:42;37677.72;;;11.96
64904;BMP280;51401;48.882;12.598;2023-04-29T01:44:13;37705.69;;;11.96
64904;BMP280;51401;48.882;12.598;2023-04-29T01:46:39;37712.00;;;11.99
64904;BMP280;51401;48.882;12.598;2023-04-29T01:49:06;37805.88;;;11.98
64904;BMP280;51401;48.882;12.598;2023-04-29T01:51:31;37882.94;;;12.00
64904;BMP280;51401;48.882;12.598;2023-04-29T01:53:58;37810.06;;;12.07
64904;BMP280;51401;48.882;12.598;2023-04-29T01:56:23;37916.44;;;12.06
64904;BMP280;51401;48.882;12.598;2023-04-29T01:58:48;37850.97;;;12.12
64904;BMP280;51401;48.882;12.598;2023-04-29T02:01:13;38055.34;;;12.08
64904;BMP280;51401;48.882;12.598;2023-04-29T02:03:39;38225.09;;;12.07
64904;BMP280;51401;48.882;12.598;2023-04-29T02:06:05;38222.47;;;12.12
64904;BMP280;51401;48.882;12.598;2023-04-29T02:08:31;38362.19;;;12.11
64904;BMP280;51401;48.882;12.598;2023-04-29T02:10:57;38506.75;;;12.10
64904;BMP280;51401;48.882;12.598;2023-04-29T02:13:24;38666.59;;;12.09
64904;BMP280;51401;48.882;12.598;2023-04-29T02:15:49;38813.72;;;12.08
64904;BMP280;51401;48.882;12.598;2023-04-29T02:18:15;38965.16;;;12.06
64904;BMP280;51401;48.882;12.598;2023-04-29T02:20:40;38990.88;;;12.07
64904;BMP280;51401;48.882;12.598;2023-04-29T02:23:05;39034.66;;;12.08
64904;BMP280;51401;48.882;12.598;2023-04-29T02:25:31;39022.44;;;12.08
64904;BMP280;51401;48.882;12.598;2023-04-29T02:27:56;39102.84;;;12.07
64904;BMP280;51401;48.882;12.598;2023-04-29T02:30:22;39108.47;;;12.08
64904;BMP280;51401;48.882;12.598;2023-04-29T02:32:47;39204.44;;;12.06
64904;BMP280;51401;48.882;12.598;2023-04-29T02:35:12;39357.13;;;12.01
64904;BMP280;51401;48.882;12.598;2023-04-29T02:37:38;39332.97;;;12.04
64904;BMP280;51401;48.882;12.598;2023-04-29T02:40:03;39245.94;;;12.08
64904;BMP280;51401;48.882;12.598;2023-04-29T02:42:30;39281.81;;;12.08
64904;BMP280;51401;48.882;12.598;2023-04-29T02:44:55;39318.00;;;12.09
64904;BMP280;51401;48.882;12.598;2023-04-29T02:47:20;39410.88;;;12.07
64904;BMP280;51401;48.882;12.598;2023-04-29T02:49:46;39293.56;;;12.11
64904;BMP280;51401;48.882;12.598;2023-04-29T02:52:11;39423.59;;;12.07
64904;BMP280;51401;48.882;12.598;2023-04-29T02:54:37;39289.25;;;12.12
64904;BMP280;51401;48.882;12.598;2023-04-29T02:57:02;39266.84;;;12.13
64904;BMP280;51401;48.882;12.598;2023-04-29T02:59:27;39004.16;;;12.22
64904;BMP280;51401;48.882;12.598;2023-04-29T03:01:53;39152.31;;;12.18
64904;BMP280;51401;48.882;12.598;2023-04-29T03:04:18;39284.94;;;12.14
64904;BMP280;51401;48.882;12.598;2023-04-29T03:06:44;39250.56;;;12.16
64904;BMP280;51401;48.882;12.598;2023-04-29T03:09:10;39217.47;;;12.16
64904;BMP280;51401;48.882;12.598;2023-04-29T03:11:36;39323.38;;;12.14
64904;BMP280;51401;48.882;12.598;2023-04-29T03:14:02;39351.38;;;12.14
64904;BMP280;51401;48.882;12.598;2023-04-29T03:16:28;39527.25;;;12.10
64904;BMP280;51401;48.882;12.598;2023-04-29T03:18:53;39671.09;;;12.08
64904;BMP280;51401;48.882;12.598;2023-04-29T03:21:18;39724.56;;;12.08
64904;BMP280;51401;48.882;12.598;2023-04-29T03:23:44;39636.75;;;12.10
64904;BMP280;51401;48.882;12.598;2023-04-29T03:26:09;39642.09;;;12.10
64904;BMP280;51401;48.882;12.598;2023-04-29T03:28:35;39643.34;;;12.08
64904;BMP280;51401;48.882;12.598;2023-04-29T03:31:01;39658.09;;;12.07
64904;BMP280;51401;48.882;12.598;2023-04-29T03:33:27;39621.22;;;12.09
64904;BMP280;51401;48.882;12.598;2023-04-29T03:35:52;39748.16;;;12.04
64904;BMP280;51401;48.882;12.598;2023-04-29T03:38:17;39702.88;;;12.05
64904;BMP280;51401;48.882;12.598;2023-04-29T03:40:42;39740.78;;;12.05
64904;BMP280;51401;48.882;12.598;2023-04-29T03:43:10;39723.50;;;12.06
64904;BMP280;51401;48.882;12.598;2023-04-29T03:45:37;39936.94;;;11.95
64904;BMP280;51401;48.882;12.598;2023-04-29T03:48:03;39747.81;;;11.99
64904;BMP280;51401;48.882;12.598;2023-04-29T03:50:29;39737.13;;;11.98
64904;BMP280;51401;48.882;12.598;2023-04-29T03:52:54;39630.22;;;11.98
64904;BMP280;51401;48.882;12.598;2023-04-29T03:55:20;39476.22;;;12.00
64904;BMP280;51401;48.882;12.598;2023-04-29T03:57:45;39325.31;;;12.04
64904;BMP280;51401;48.882;12.598;2023-04-29T04:00:11;39028.53;;;12.10
64904;BMP280;51401;48.882;12.598;2023-04-29T04:02:36;39013.03;;;12.10
64904;BMP280;51401;48.882;12.598;2023-04-29T04:05:01;39072.84;;;12.08
64904;BMP280;51401;48.882;12.598;2023-04-29T04:07:27;39129.31;;;12.04
64904;BMP280;51401;48.882;12.598;2023-04-29T04:09:52;39001.03;;;12.07
64904;BMP280;51401;48.882;12.598;2023-04-29T04:12:17;38910.69;;;12.09
64904;BMP280;51401;48.882;12.598;2023-04-29T04:14:43;38930.03;;;12.07
64904;BMP280;51401;48.882;12.598;2023-04-29T04:17:08;38787.50;;;12.12
64904;BMP280;51401;48.882;12.598;2023-04-29T04:19:33;38740.16;;;12.14
64904;BMP280;51401;48.882;12.598;2023-04-29T04:21:58;38759.75;;;12.12
64904;BMP280;51401;48.882;12.598;2023-04-29T04:24:24;38633.50;;;12.19
64904;BMP280;51401;48.882;12.598;2023-04-29T04:26:49;38721.06;;;12.16
64904;BMP280;51401;48.882;12.598;2023-04-29T04:29:14;38716.47;;;12.17
64904;BMP280;51401;48.882;12.598;2023-04-29T04:31:40;38517.13;;;12.26
64904;BMP280;51401;48.882;12.598;2023-04-29T04:34:05;38518.13;;;12.28
64904;BMP280;51401;48.882;12.598;2023-04-29T04:36:31;38413.72;;;12.33
64904;BMP280;51401;48.882;12.598;2023-04-29T04:38:57;38415.75;;;12.37
64904;BMP280;51401;48.882;12.598;2023-04-29T04:41:22;38185.50;;;12.44
64904;BMP280;51401;48.882;12.598;2023-04-29T04:43:47;38323.75;;;12.46
64904;BMP280;51401;48.882;12.598;2023-04-29T04:46:14;38656.84;;;12.40
64904;BMP280;51401;48.882;12.598;2023-04-29T04:48:40;38819.81;;;12.40
64904;BMP280;51401;48.882;12.598;2023-04-29T04:51:12;39118.81;;;12.37
64904;BMP280;51401;48.882;12.598;2023-04-29T04:53:38;39325.56;;;12.33
64904;BMP280;51401;48.882;12.598;2023-04-29T04:56:04;39468.19;;;12.33
64904;BMP280;51401;48.882;12.598;2023-04-29T04:58:31;39738.63;;;12.29
64904;BMP280;51401;48.882;12.598;2023-04-29T05:00:57;39814.50;;;12.28
64904;BMP280;51401;48.882;12.598;2023-04-29T05:03:22;39819.16;;;12.32
64904;BMP280;51401;48.882;12.598;2023-04-29T05:05:55;39870.63;;;12.33
64904;BMP280;51401;48.882;12.598;2023-04-29T05:08:21;39700.56;;;12.39
64904;BMP280;51401;48.882;12.598;2023-04-29T05:10:46;39530.22;;;12.44
64904;BMP280;51401;48.882;12.598;2023-04-29T05:13:11;39381.00;;;12.51
64904;BMP280;51401;48.882;12.598;2023-04-29T05:15:37;39134.22;;;12.62
64904;BMP280;51401;48.882;12.598;2023-04-29T05:18:02;39202.47;;;12.61
64904;BMP280;51401;48.882;12.598;2023-04-29T05:20:27;38958.94;;;12.72
64904;BMP280;51401;48.882;12.598;2023-04-29T05:22:53;38810.38;;;12.81
64904;BMP280;51401;48.882;12.598;2023-04-29T05:25:18;38672.50;;;12.90
64904;BMP280;51401;48.882;12.598;2023-04-29T05:27:43;38641.13;;;12.98
64904;BMP280;51401;48.882;12.598;2023-04-29T05:30:09;38805.28;;;13.00
64904;BMP280;51401;48.882;12.598;2023-04-29T05:32:34;39147.09;;;12.96
64904;BMP280;51401;48.882;12.598;2023-04-29T05:34:59;39350.06;;;12.99
64904;BMP280;51401;48.882;12.598;2023-04-29T05:37:25;39605.53;;;13.00
64904;BMP280;51401;48.882;12.598;2023-04-29T05:39:55;40138.84;;;12.91
64904;BMP280;51401;48.882;12.598;2023-04-29T05:42:20;40562.00;;;12.86
64904;BMP280;51401;48.882;12.598;2023-04-29T05:44:45;40738.25;;;12.87
64904;BMP280;51401;48.882;12.598;2023-04-29T05:47:11;40662.03;;;12.97
64904;BMP280;51401;48.882;12.598;2023-04-29T05:49:36;40619.63;;;13.03
64904;BMP280;51401;48.882;12.598;2023-04-29T05:52:01;40959.00;;;12.98
64904;BMP280;51401;48.882;12.598;2023-04-29T05:54:33;40834.22;;;13.13
64904;BMP280;51401;48.882;12.598;2023-04-29T05:56:59;40818.66;;;13.22
64904;BMP280;51401;48.882;12.598;2023-04-29T05:59:30;40724.16;;;13.35
64904;BMP280;51401;48.882;12.598;2023-04-29T06:01:57;40898.97;;;13.42
64904;BMP280;51401;48.882;12.598;2023-04-29T06:04:23;41040.25;;;13.53
64904;BMP280;51401;48.882;12.598;2023-04-29T06:06:49;41509.47;;;13.56
64904;BMP280;51401;48.882;12.598;2023-04-29T06:09:15;42282.88;;;13.51
64904;BMP280;51401;48.882;12.598;2023-04-29T06:11:40;43339.28;;;13.40
64904;BMP280;51401;48.882;12.598;2023-04-29T06:14:06;43889.84;;;13.42
64904;BMP280;51401;48.882;12.598;2023-04-29T06:16:31;44592.22;;;13.37
64904;BMP280;51401;48.882;12.598;2023-04-29T06:18:57;45082.72;;;13.37
64904;BMP280;51401;48.882;12.598;2023-04-29T06:21:22;45377.84;;;13.43
64904;BMP280;51401;48.882;12.598;2023-04-29T06:23:47;45505.13;;;13.54
64904;BMP280;51401;48.882;12.598;2023-04-29T06:26:13;46046.34;;;13.56
64904;BMP280;51401;48.882;12.598;2023-04-29T06:28:38;46600.19;;;13.62
64904;BMP280;51401;48.882;12.598;2023-04-29T06:31:04;47286.41;;;13.67
64904;BMP280;51401;48.882;12.598;2023-04-29T06:33:29;48098.44;;;13.60
64904;BMP280;51401;48.882;12.598;2023-04-29T06:35:55;48326.66;;;13.76
64904;BMP280;51401;48.882;12.598;2023-04-29T06:38:21;49137.75;;;13.71
64904;BMP280;51401;48.882;12.598;2023-04-29T06:40:46;49558.22;;;13.86
64904;BMP280;51401;48.882;12.598;2023-04-29T06:43:11;50561.16;;;13.84
64904;BMP280;51401;48.882;12.598;2023-04-29T06:45:37;51730.03;;;13.76
64904;BMP280;51401;48.882;12.598;2023-04-29T06:48:02;51511.78;;;14.15
64904;BMP280;51401;48.882;12.598;2023-04-29T06:50:28;51863.72;;;14.36
64904;BMP280;51401;48.882;12.598;2023-04-29T06:52:53;53117.31;;;14.41
64904;BMP280;51401;48.882;12.598;2023-04-29T06:55:18;53961.25;;;14.76
64904;BMP280;51401;48.882;12.598;2023-04-29T06:57:44;56105.50;;;14.79
64904;BMP280;51401;48.882;12.598;2023-04-29T07:00:09;58451.16;;;14.53
64904;BMP280;51401;48.882;12.598;2023-04-29T07:02:34;59715.41;;;14.53
64904;BMP280;51401;48.882;12.598;2023-04-29T07:05:03;60457.88;;;14.69
64904;BMP280;51401;48.882;12.598;2023-04-29T07:07:28;61884.31;;;14.79
64904;BMP280;51401;48.882;12.598;2023-04-29T07:09:54;63404.00;;;15.08
64904;BMP280;51401;48.882;12.598;2023-04-29T07:12:19;64941.38;;;15.43
64904;BMP280;51401;48.882;12.598;2023-04-29T07:14:44;66972.13;;;15.48
64904;BMP280;51401;48.882;12.598;2023-04-29T07:17:10;68084.44;;;15.79
64904;BMP280;51401;48.882;12.598;2023-04-29T07:19:35;69688.03;;;16.43
64904;BMP280;51401;48.882;12.598;2023-04-29T07:22:00;73107.22;;;16.16
64904;BMP280;51401;48.882;12.598;2023-04-29T07:24:26;74711.59;;;15.52
64904;BMP280;51401;48.882;12.598;2023-04-29T07:26:51;74853.72;;;15.35
64904;BMP280;51401;48.882;12.598;2023-04-29T07:29:16;75338.06;;;15.00
64904;BMP280;51401;48.882;12.598;2023-04-29T07:31:42;75154.91;;;15.35
64904;BMP280;51401;48.882;12.598;2023-04-29T07:34:07;75531.19;;;15.33
64904;BMP280;51401;48.882;12.598;2023-04-29T07:36:33;75895.34;;;15.09
64904;BMP280;51401;48.882;12.598;2023-04-29T07:38:58;75920.97;;;15.25
64904;BMP280;51401;48.882;12.598;2023-04-29T07:41:24;76241.53;;;15.52
64904;BMP280;51401;48.882;12.598;2023-04-29T07:43:49;76443.44;;;15.83
64904;BMP280;51401;48.882;12.598;2023-04-29T07:46:14;77426.09;;;15.82
64904;BMP280;51401;48.882;12.598;2023-04-29T07:48:42;78710.16;;;15.46
64904;BMP280;51401;48.882;12.598;2023-04-29T07:51:11;78133.13;;;15.98
64904;BMP280;51401;48.882;12.598;2023-04-29T07:53:37;78804.81;;;16.57
64904;BMP280;51401;48.882;12.598;2023-04-29T07:56:06;80297.38;;;16.89
64904;BMP280;51401;48.882;12.598;2023-04-29T07:58:32;81571.53;;;16.47
64904;BMP280;51401;48.882;12.598;2023-04-29T08:01:07;80946.09;;;16.55
64904;BMP280;51401;48.882;12.598;2023-04-29T08:03:34;81311.19;;;16.98
64904;BMP280;51401;48.882;12.598;2023-04-29T08:06:01;82022.28;;;17.13
64904;BMP280;51401;48.882;12.598;2023-04-29T08:08:26;82321.63;;;17.61
64904;BMP280;51401;48.882;12.598;2023-04-29T08:10:51;83658.31;;;17.66
64904;BMP280;51401;48.882;12.598;2023-04-29T08:13:16;83743.94;;;17.92
64904;BMP280;51401;48.882;12.598;2023-04-29T08:15:42;84807.50;;;16.83
64904;BMP280;51401;48.882;12.598;2023-04-29T08:18:07;84268.22;;;17.57
64904;BMP280;51401;48.882;12.598;2023-04-29T08:20:32;85011.38;;;17.87
64904;BMP280;51401;48.882;12.598;2023-04-29T08:22:58;85296.03;;;18.34
64904;BMP280;51401;48.882;12.598;2023-04-29T08:25:24;85436.88;;;18.86
64904;BMP280;51401;48.882;12.598;2023-04-29T08:27:51;86334.59;;;18.58
64904;BMP280;51401;48.882;12.598;2023-04-29T08:30:16;87026.72;;;17.64
64904;BMP280;51401;48.882;12.598;2023-04-29T08:32:42;85873.91;;;17.91
64904;BMP280;51401;48.882;12.598;2023-04-29T08:35:08;85568.53;;;17.83
64904;BMP280;51401;48.882;12.598;2023-04-29T08:37:33;85920.78;;;18.36
64904;BMP280;51401;48.882;12.598;2023-04-29T08:39:58;86186.53;;;18.45
64904;BMP280;51401;48.882;12.598;2023-04-29T08:42:34;86275.06;;;18.59
64904;BMP280;51401;48.882;12.598;2023-04-29T08:45:01;86588.94;;;19.37
64904;BMP280;51401;48.882;12.598;2023-04-29T08:47:29;86909.22;;;20.45
64904;BMP280;51401;48.882;12.598;2023-04-29T08:49:55;87588.09;;;21.04
64904;BMP280;51401;48.882;12.598;2023-04-29T08:52:21;86973.81;;;20.84
64904;BMP280;51401;48.882;12.598;2023-04-29T08:54:46;87940.13;;;21.59
64904;BMP280;51401;48.882;12.598;2023-04-29T08:57:12;89132.75;;;20.18
64904;BMP280;51401;48.882;12.598;2023-04-29T08:59:37;88834.16;;;19.36
64904;BMP280;51401;48.882;12.598;2023-04-29T09:02:03;87997.44;;;19.04
64904;BMP280;51401;48.882;12.598;2023-04-29T09:04:40;87464.88;;;19.23
64904;BMP280;51401;48.882;12.598;2023-04-29T09:07:06;87900.34;;;19.36
64904;BMP280;51401;48.882;12.598;2023-04-29T09:09:32;88299.94;;;20.11
64904;BMP280;51401;48.882;12.598;2023-04-29T09:11:57;88275.16;;;21.21
64904;BMP280;51401;48.882;12.598;2023-04-29T09:14:23;89388.31;;;20.82
64904;BMP280;51401;48.882;12.598;2023-04-29T09:16:49;90423.28;;;21.99
64904;BMP280;51401;48.882;12.598;2023-04-29T09:19:46;90509.06;;;22.06
64904;BMP280;51401;48.882;12.598;2023-04-29T09:22:12;91066.75;;;20.60
64904;BMP280;51401;48.882;12.598;2023-04-29T09:24:37;92064.28;;;21.50
64904;BMP280;51401;48.882;12.598;2023-04-29T09:27:04;93328.88;;;21.16
64904;BMP280;51401;48.882;12.598;2023-04-29T09:29:29;92944.44;;;21.95
64904;BMP280;51401;48.882;12.598;2023-04-29T09:31:56;94342.53;;;22.76
64904;BMP280;51401;48.882;12.598;2023-04-29T09:34:35;95931.81;;;21.96
64904;BMP280;51401;48.882;12.598;2023-04-29T09:37:02;95674.03;;;19.85
64904;BMP280;51401;48.882;12.598;2023-04-29T09:39:37;95333.31;;;19.95
64904;BMP280;51401;48.882;12.598;2023-04-29T09:42:02;95025.81;;;19.97
64904;BMP280;51401;48.882;12.598;2023-04-29T09:44:30;94912.66;;;19.35
64904;BMP280;51401;48.882;12.598;2023-04-29T09:46:59;94781.44;;;18.75
64904;BMP280;51401;48.882;12.598;2023-04-29T09:49:30;94036.22;;;18.35
64904;BMP280;51401;48.882;12.598;2023-04-29T09:52:01;91116.63;;;17.44
64904;BMP280;51401;48.882;12.598;2023-04-29T09:54:29;90637.09;;;17.37
64904;BMP280;51401;48.882;12.598;2023-04-29T09:56:56;90601.56;;;17.32
64904;BMP280;51401;48.882;12.598;2023-04-29T09:59:22;90253.16;;;16.99
64904;BMP280;51401;48.882;12.598;2023-04-29T10:01:50;89892.22;;;16.70
64904;BMP280;51401;48.882;12.598;2023-04-29T10:04:17;89607.44;;;16.45
64904;BMP280;51401;48.882;12.598;2023-04-29T10:06:44;88952.16;;;16.63
64904;BMP280;51401;48.882;12.598;2023-04-29T10:09:13;88670.59;;;16.80
64904;BMP280;51401;48.882;12.598;2023-04-29T10:11:47;88683.91;;;16.96
64904;BMP280;51401;48.882;12.598;2023-04-29T10:14:20;88441.00;;;16.90
64904;BMP280;51401;48.882;12.598;2023-04-29T10:16:58;89175.94;;;16.87
64904;BMP280;51401;48.882;12.598;2023-04-29T10:19:25;89748.41;;;17.03
64904;BMP280;51401;48.882;12.598;2023-04-29T10:21:53;90072.88;;;17.51
64904;BMP280;51401;48.882;12.598;2023-04-29T10:24:24;90369.19;;;18.72
64904;BMP280;51401;48.882;12.598;2023-04-29T10:26:50;90966.91;;;20.13
64904;BMP280;51401;48.882;12.598;2023-04-29T10:29:17;92173.63;;;20.81
64904;BMP280;51401;48.882;12.598;2023-04-29T10:31:43;92417.56;;;21.01
64904;BMP280;51401;48.882;12.598;2023-04-29T10:34:11;92580.88;;;21.99
64904;BMP280;51401;48.882;12.598;2023-04-29T10:36:37;92947.03;;;21.26
64904;BMP280;51401;48.882;12.598;2023-04-29T10:39:03;93159.75;;;21.08
64904;BMP280;51401;48.882;12.598;2023-04-29T10:41:36;93116.66;;;21.88
64904;BMP280;51401;48.882;12.598;2023-04-29T10:44:02;93131.50;;;22.41
64904;BMP280;51401;48.882;12.598;2023-04-29T10:46:28;94809.66;;;22.58
64904;BMP280;51401;48.882;12.598;2023-04-29T10:49:00;96930.66;;;22.86
64904;BMP280;51401;48.882;12.598;2023-04-29T10:51:40;97051.47;;;20.96
64904;BMP280;51401;48.882;12.598;2023-04-29T10:54:08;96918.69;;;20.74
64904;BMP280;51401;48.882;12.598;2023-04-29T10:56:35;96318.50;;;19.90
64904;BMP280;51401;48.882;12.598;2023-04-29T11:02:11;95185.59;;;19.15
64904;BMP280;51401;48.882;12.598;2023-04-29T11:05:05;94397.84;;;19.22
64904;BMP280;51401;48.882;12.598;2023-04-29T11:07:30;93383.19;;;19.08
64904;BMP280;51401;48.882;12.598;2023-04-29T11:09:56;93210.72;;;19.25
64904;BMP280;51401;48.882;12.598;2023-04-29T11:12:21;92979.66;;;19.33
64904;BMP280;51401;48.882;12.598;2023-04-29T11:14:50;92485.84;;;19.47
64904;BMP280;51401;48.882;12.598;2023-04-29T11:17:17;92790.47;;;18.95
64904;BMP280;51401;48.882;12.598;2023-04-29T11:19:51;91988.25;;;19.24
64904;BMP280;51401;48.882;12.598;2023-04-29T11:27:21;91932.75;;;19.61
64904;BMP280;51401;48.882;12.598;2023-04-29T11:29:50;92558.84;;;21.83
64904;BMP280;51401;48.882;12.598;2023-04-29T11:32:19;93060.06;;;21.80
64904;BMP280;51401;48.882;12.598;2023-04-29T11:34:45;93581.44;;;21.05
64904;BMP280;51401;48.882;12.598;2023-04-29T11:37:10;93647.66;;;20.22
64904;BMP280;51401;48.882;12.598;2023-04-29T11:39:36;93379.69;;;19.44
64904;BMP280;51401;48.882;12.598;2023-04-29T11:42:03;93226.50;;;18.70
64904;BMP280;51401;48.882;12.598;2023-04-29T11:44:28;93061.50;;;18.09
64904;BMP280;51401;48.882;12.598;2023-04-29T11:47:00;92673.56;;;18.14
64904;BMP280;51401;48.882;12.598;2023-04-29T11:49:33;92386.25;;;17.46
64904;BMP280;51401;48.882;12.598;2023-04-29T11:51:58;91993.81;;;17.85
64904;BMP280;51401;48.882;12.598;2023-04-29T11:54:28;91936.91;;;18.36
64904;BMP280;51401;48.882;12.598;2023-04-29T11:56:54;92483.00;;;19.06
64904;BMP280;51401;48.882;12.598;2023-04-29T11:59:20;93109.97;;;19.71
64904;BMP280;51401;48.882;12.598;2023-04-29T12:01:47;93423.56;;;19.59
64904;BMP280;51401;48.882;12.598;2023-04-29T12:04:13;93665.47;;;19.92
64904;BMP280;51401;48.882;12.598;2023-04-29T12:06:38;93885.22;;;20.02
64904;BMP280;51401;48.882;12.598;2023-04-29T12:09:05;94073.38;;;20.33
64904;BMP280;51401;48.882;12.598;2023-04-29T12:11:30;94089.13;;;20.33
64904;BMP280;51401;48.882;12.598;2023-04-29T12:13:56;94192.91;;;21.26
64904;BMP280;51401;48.882;12.598;2023-04-29T12:16:22;96784.06;;;22.24
64904;BMP280;51401;48.882;12.598;2023-04-29T12:18:49;97187.78;;;22.31
64904;BMP280;51401;48.882;12.598;2023-04-29T12:21:15;97214.22;;;21.92
64904;BMP280;51401;48.882;12.598;2023-04-29T12:23:40;97225.00;;;21.74
64904;BMP280;51401;48.882;12.598;2023-04-29T12:26:05;97175.50;;;22.08
64904;BMP280;51401;48.882;12.598;2023-04-29T12:28:32;97104.09;;;21.78
64904;BMP280;51401;48.882;12.598;2023-04-29T13:08:47;96164.59;;;19.70
64904;BMP280;51401;48.882;12.598;2023-04-29T13:11:12;96243.47;;;20.05
64904;BMP280;51401;48.882;12.598;2023-04-29T13:13:38;96347.22;;;20.81
64904;BMP280;51401;48.882;12.598;2023-04-29T13:16:04;96503.53;;;21.04
64904;BMP280;51401;48.882;12.598;2023-04-29T13:18:29;96492.88;;;20.82
64904;BMP280;51401;48.882;12.598;2023-04-29T13:20:54;96414.09;;;20.48
64904;BMP280;51401;48.882;12.598;2023-04-29T13:23:20;96382.34;;;19.21
64904;BMP280;51401;48.882;12.598;2023-04-29T13:25:45;96241.97;;;19.02
64904;BMP280;51401;48.882;12.598;2023-04-29T13:28:12;96191.28;;;18.96
64904;BMP280;51401;48.882;12.598;2023-04-29T13:30:37;96200.44;;;19.31
64904;BMP280;51401;48.882;12.598;2023-04-29T13:33:03;96284.38;;;19.15
64904;BMP280;51401;48.882;12.598;2023-04-29T13:35:28;96381.41;;;18.99
64904;BMP280;51401;48.882;12.598;2023-04-29T13:37:53;96447.69;;;19.28
64904;BMP280;51401;48.882;12.598;2023-04-29T13:40:18;96434.53;;;19.08
64904;BMP280;51401;48.882;12.598;2023-04-29T13:42:44;96495.22;;;19.10
64904;BMP280;51401;48.882;12.598;2023-04-29T13:45:09;96445.94;;;18.86
64904;BMP280;51401;48.882;12.598;2023-04-29T13:47:35;96349.00;;;18.88
64904;BMP280;51401;48.882;12.598;2023-04-29T13:50:00;96330.53;;;18.77
64904;BMP280;51401;48.882;12.598;2023-04-29T13:52:26;96274.38;;;18.55
64904;BMP280;51401;48.882;12.598;2023-04-29T13:54:54;96255.69;;;18.67
64904;BMP280;51401;48.882;12.598;2023-04-29T13:57:20;96325.56;;;18.64
64904;BMP280;51401;48.882;12.598;2023-04-29T13:59:45;96442.53;;;19.19
64904;BMP280;51401;48.882;12.598;2023-04-29T14:02:11;96654.50;;;18.93
64904;BMP280;51401;48.882;12.598;2023-04-29T14:04:38;96671.41;;;19.49
64904;BMP280;51401;48.882;12.598;2023-04-29T14:07:03;96816.72;;;19.93
64904;BMP280;51401;48.882;12.598;2023-04-29T14:09:28;96963.38;;;20.35
64904;BMP280;51401;48.882;12.598;2023-04-29T14:11:54;97040.06;;;20.56
64904;BMP280;51401;48.882;12.598;2023-04-29T14:14:19;97138.09;;;20.60
64904;BMP280;51401;48.882;12.598;2023-04-29T14:16:44;97065.56;;;21.27
64904;BMP280;51401;48.882;12.598;2023-04-29T14:19:10;97155.19;;;21.07
64904;BMP280;51401;48.882;12.598;2023-04-29T14:21:36;97139.72;;;21.01
64904;BMP280;51401;48.882;12.598;2023-04-29T14:24:01;97121.59;;;21.22
64904;BMP280;51401;48.882;12.598;2023-04-29T14:26:27;97135.25;;;21.55
64904;BMP280;51401;48.882;12.598;2023-04-29T14:28:53;97150.00;;;21.47
64904;BMP280;51401;48.882;12.598;2023-04-29T14:31:25;97105.81;;;21.42
64904;BMP280;51401;48.882;12.598;2023-04-29T14:33:55;97053.16;;;20.99
64904;BMP280;51401;48.882;12.598;2023-04-29T14:36:20;97034.09;;;21.04
64904;BMP280;51401;48.882;12.598;2023-04-29T14:38:46;97031.03;;;21.11
64904;BMP280;51401;48.882;12.598;2023-04-29T14:41:11;96988.94;;;20.97
64904;BMP280;51401;48.882;12.598;2023-04-29T14:43:36;96960.53;;;20.38
64904;BMP280;51401;48.882;12.598;2023-04-29T14:46:02;96888.69;;;20.72
64904;BMP280;51401;48.882;12.598;2023-04-29T14:48:27;96689.47;;;19.96
64904;BMP280;51401;48.882;12.598;2023-04-29T14:50:53;96685.75;;;20.41